createdAt,value
2018-12-11T00:00:06.442Z,3.70
2018-12-11T00:01:06.429Z,3.57
2018-12-11T00:02:06.443Z,3.62
2018-12-11T00:03:06.419Z,3.61
2018-12-11T00:04:06.396Z,3.57
2018-12-11T00:05:06.386Z,3.67
2018-12-11T00:06:06.377Z,3.60
2018-12-11T00:07:06.364Z,3.67
2018-12-11T00:08:06.368Z,3.61
2018-12-11T00:09:06.351Z,3.64
2018-12-11T00:10:06.331Z,3.58
2018-12-11T00:11:06.356Z,3.60
2018-12-11T00:12:06.308Z,3.64
2018-12-11T00:13:06.299Z,3.64
2018-12-11T00:14:06.289Z,3.61
2018-12-11T00:15:06.280Z,3.60
2018-12-11T00:16:06.271Z,3.54
2018-12-11T00:17:06.268Z,3.67
2018-12-11T00:18:06.244Z,3.64
2018-12-11T00:19:06.232Z,3.61
2018-12-11T00:20:06.221Z,3.67
2018-12-11T00:21:06.224Z,3.64
2018-12-11T00:22:06.204Z,3.64
2018-12-11T00:23:06.198Z,3.60
2018-12-11T00:24:06.188Z,3.65
2018-12-11T00:25:06.167Z,3.65
2018-12-11T00:26:06.156Z,3.70
2018-12-11T00:27:06.148Z,3.67
2018-12-11T00:28:06.137Z,3.68
2018-12-11T00:29:06.142Z,3.67
2018-12-11T00:30:06.131Z,3.72
2018-12-11T00:31:06.101Z,3.70
2018-12-11T00:32:06.089Z,3.62
2018-12-11T00:33:06.078Z,3.64
2018-12-11T00:34:06.080Z,3.68
2018-12-11T00:35:06.055Z,3.62
2018-12-11T00:36:06.088Z,3.62
2018-12-11T00:37:06.034Z,3.54
2018-12-11T00:38:06.026Z,3.67
2018-12-11T00:39:06.013Z,3.62
2018-12-11T00:40:06.004Z,3.58
2018-12-11T00:41:05.991Z,3.68
2018-12-11T00:42:06.021Z,3.61
2018-12-11T00:43:05.970Z,3.58
2018-12-11T00:44:05.957Z,3.61
2018-12-11T00:45:05.948Z,3.50
2018-12-11T00:46:05.984Z,3.54
2018-12-11T00:47:05.930Z,3.58
2018-12-11T00:48:05.935Z,3.61
2018-12-11T00:49:05.901Z,3.54
2018-12-11T00:50:05.890Z,3.64
2018-12-11T00:51:05.883Z,3.62
2018-12-11T00:52:05.869Z,3.65
2018-12-11T00:53:05.872Z,3.64
2018-12-11T00:54:05.854Z,3.62
2018-12-11T00:55:05.837Z,3.54
2018-12-11T00:56:05.826Z,3.60
2018-12-11T00:57:05.814Z,3.61
2018-12-11T00:58:05.825Z,3.57
2018-12-11T00:59:05.792Z,3.62
2018-12-11T01:00:05.787Z,3.52
2018-12-11T01:01:05.772Z,3.49
2018-12-11T01:02:05.761Z,3.49
2018-12-11T01:03:05.749Z,3.50
2018-12-11T01:04:05.752Z,3.60
2018-12-11T01:05:05.726Z,3.50
2018-12-11T01:06:05.724Z,3.52
2018-12-11T01:07:05.717Z,3.60
2018-12-11T01:08:05.693Z,3.53
2018-12-11T01:09:05.683Z,3.67
2018-12-11T01:10:05.697Z,3.53
2018-12-11T01:11:05.672Z,3.61
2018-12-11T01:12:05.657Z,3.67
2018-12-11T01:13:05.638Z,3.62
2018-12-11T01:14:05.627Z,3.60
2018-12-11T01:15:05.617Z,3.54
2018-12-11T01:16:05.618Z,3.64
2018-12-11T01:17:05.633Z,3.53
2018-12-11T01:18:05.619Z,3.53
2018-12-11T01:19:05.586Z,3.52
2018-12-11T01:20:05.561Z,3.58
2018-12-11T01:21:05.550Z,3.54
2018-12-11T01:22:05.541Z,3.58
2018-12-11T01:23:05.541Z,3.53
2018-12-11T01:24:05.531Z,3.50
2018-12-11T01:25:05.510Z,3.54
2018-12-11T01:26:05.496Z,3.50
2018-12-11T01:27:05.485Z,3.53
2018-12-11T01:28:05.485Z,3.52
2018-12-11T01:29:05.486Z,3.53
2018-12-11T01:30:05.451Z,3.62
2018-12-11T01:31:05.447Z,3.52
2018-12-11T01:32:05.429Z,3.49
2018-12-11T01:33:05.419Z,3.49
2018-12-11T01:34:05.408Z,3.61
2018-12-11T01:35:05.421Z,3.60
2018-12-11T01:36:05.384Z,3.62
2018-12-11T01:37:05.382Z,3.67
2018-12-11T01:38:05.362Z,3.60
2018-12-11T02:24:30.932Z,3.09
2018-12-11T02:24:53.628Z,3.09
2018-12-11T02:25:53.599Z,3.02
2018-12-11T02:26:53.588Z,3.05
2018-12-11T02:27:53.590Z,3.02
2018-12-11T02:28:53.593Z,3.03
2018-12-11T02:29:53.556Z,3.06
2018-12-11T02:30:53.550Z,2.95
2018-12-11T02:31:53.534Z,2.98
2018-12-11T02:32:53.522Z,2.95
2018-12-11T02:33:53.510Z,2.95
2018-12-11T02:34:53.525Z,3.03
2018-12-11T02:35:53.492Z,2.92
2018-12-11T02:36:53.477Z,2.89
2018-12-11T02:37:53.470Z,2.87
2018-12-11T02:38:53.455Z,2.88
2018-12-11T02:39:53.448Z,2.82
2018-12-11T02:40:53.474Z,2.89
2018-12-11T02:41:53.431Z,2.89
2018-12-11T02:42:53.410Z,2.92
2018-12-11T02:43:53.401Z,2.92
2018-12-11T02:44:53.395Z,2.89
2018-12-11T02:45:53.380Z,2.89
2018-12-11T02:46:53.394Z,2.89
2018-12-11T02:47:53.362Z,2.95
2018-12-11T02:48:53.356Z,2.94
2018-12-11T02:49:53.333Z,2.89
2018-12-11T02:50:53.323Z,3.00
2018-12-11T02:51:53.314Z,2.95
2018-12-11T02:52:53.321Z,2.95
2018-12-11T02:53:53.294Z,2.92
2018-12-11T02:54:53.281Z,2.98
2018-12-11T02:55:53.268Z,2.98
2018-12-11T02:56:53.257Z,3.00
2018-12-11T02:57:53.287Z,2.94
2018-12-11T02:58:53.236Z,2.92
2018-12-11T02:59:53.230Z,2.81
2018-12-11T03:00:53.215Z,2.85
2018-12-11T03:01:53.221Z,2.82
2018-12-11T03:02:53.190Z,2.84
2018-12-11T03:03:53.182Z,2.82
2018-12-11T03:04:53.168Z,2.81
2018-12-11T03:05:53.181Z,2.81
2018-12-11T03:06:53.167Z,2.85
2018-12-11T03:07:53.136Z,2.88
2018-12-11T03:08:53.124Z,2.89
2018-12-11T03:09:53.114Z,2.94
2018-12-11T03:10:53.146Z,2.88
2018-12-11T03:11:53.096Z,2.94
2018-12-11T03:12:53.083Z,2.89
2018-12-11T03:13:53.070Z,2.87
2018-12-11T03:14:53.082Z,2.89
2018-12-11T03:15:53.059Z,2.92
2018-12-11T03:16:53.084Z,2.95
2018-12-11T03:17:53.027Z,2.98
2018-12-11T03:18:53.015Z,2.88
2018-12-11T03:19:53.004Z,2.88
2018-12-11T03:20:52.999Z,2.87
2018-12-11T03:21:53.006Z,2.82
2018-12-11T03:22:52.976Z,2.91
2018-12-11T03:23:52.958Z,2.92
2018-12-11T03:24:52.972Z,2.97
2018-12-11T03:25:52.935Z,3.03
2018-12-11T03:26:52.926Z,2.98
2018-12-11T03:27:52.915Z,3.03
2018-12-11T03:28:52.903Z,3.09
2018-12-11T03:29:52.924Z,3.06
2018-12-11T03:30:52.895Z,3.12
2018-12-11T03:31:52.893Z,3.12
2018-12-11T03:32:52.859Z,3.20
2018-12-11T03:33:52.856Z,3.12
2018-12-11T03:34:52.838Z,3.16
2018-12-11T03:35:52.877Z,3.16
2018-12-11T03:36:52.815Z,3.10
2018-12-11T03:37:52.803Z,3.10
2018-12-11T03:38:52.826Z,3.15
2018-12-11T03:39:52.780Z,3.09
2018-12-11T03:40:52.771Z,3.13
2018-12-11T03:41:52.759Z,3.10
2018-12-11T03:42:52.751Z,3.12
2018-12-11T03:43:52.738Z,3.12
2018-12-11T03:44:52.754Z,3.10
2018-12-11T03:45:52.729Z,3.07
2018-12-11T03:46:52.703Z,3.15
2018-12-11T03:47:52.723Z,3.00
2018-12-11T03:48:52.724Z,3.02
2018-12-11T03:49:52.669Z,3.03
2018-12-11T03:50:52.659Z,3.06
2018-12-11T03:51:52.660Z,2.98
2018-12-11T03:52:52.637Z,2.94
2018-12-11T03:53:52.626Z,2.98
2018-12-11T03:54:52.632Z,3.03
2018-12-11T03:55:52.603Z,2.98
2018-12-11T03:56:52.619Z,2.98
2018-12-11T03:57:52.579Z,2.94
2018-12-11T03:58:52.570Z,2.91
2018-12-11T03:59:52.557Z,2.92
2018-12-11T04:00:52.546Z,3.00
2018-12-11T04:01:52.627Z,3.00
2018-12-11T04:02:52.532Z,3.06
2018-12-11T04:03:52.517Z,3.03
2018-12-11T04:04:52.503Z,3.00
2018-12-11T04:05:52.492Z,3.03
2018-12-11T04:06:52.481Z,3.05
2018-12-11T04:07:52.494Z,3.00
2018-12-11T04:08:52.463Z,3.00
2018-12-11T04:09:52.455Z,2.97
2018-12-11T04:10:52.438Z,2.97
2018-12-11T04:11:52.426Z,3.05
2018-12-11T04:12:52.455Z,3.05
2018-12-11T04:13:52.402Z,3.06
2018-12-11T04:14:52.391Z,3.00
2018-12-11T04:15:52.389Z,2.92
2018-12-11T04:16:52.370Z,2.97
2018-12-11T04:17:52.358Z,2.95
2018-12-11T04:18:52.367Z,2.92
2018-12-11T04:19:52.335Z,3.02
2018-12-11T04:20:52.326Z,3.05
2018-12-11T04:21:52.318Z,3.05
2018-12-11T04:22:52.351Z,3.03
2018-12-11T04:23:52.292Z,3.06
2018-12-11T04:24:52.282Z,3.09
2018-12-11T04:25:52.271Z,3.15
2018-12-11T04:26:52.258Z,3.07
2018-12-11T04:27:52.256Z,3.07
2018-12-11T04:28:52.285Z,3.12
2018-12-11T04:29:52.228Z,3.07
2018-12-11T04:30:52.214Z,3.12
2018-12-11T04:31:52.203Z,3.07
2018-12-11T04:32:52.190Z,3.13
2018-12-11T04:33:52.180Z,3.02
2018-12-11T04:34:52.202Z,2.97
2018-12-11T04:35:52.161Z,3.00
2018-12-11T04:36:52.167Z,2.97
2018-12-11T04:37:52.136Z,3.02
2018-12-11T04:38:52.125Z,2.98
2018-12-11T04:39:52.115Z,3.07
2018-12-11T04:40:52.109Z,3.15
2018-12-11T04:41:52.134Z,3.16
2018-12-11T04:42:52.093Z,3.16
2018-12-11T04:43:52.070Z,3.09
2018-12-11T04:44:52.060Z,3.12
2018-12-11T04:45:52.048Z,3.21
2018-12-11T04:46:52.046Z,3.24
2018-12-11T04:47:52.044Z,3.18
2018-12-11T04:48:52.013Z,3.23
2018-12-11T04:49:52.006Z,3.18
2018-12-11T04:50:51.991Z,3.10
2018-12-11T04:51:51.981Z,3.10
2018-12-11T04:52:51.995Z,3.02
2018-12-11T04:53:51.960Z,3.00
2018-12-11T04:54:51.967Z,3.00
2018-12-11T04:55:51.937Z,2.97
2018-12-11T04:56:51.926Z,3.00
2018-12-11T04:57:51.952Z,3.10
2018-12-11T04:58:51.910Z,3.02
2018-12-11T04:59:51.892Z,3.03
2018-12-11T05:00:51.878Z,3.02
2018-12-11T05:01:51.870Z,3.05
2018-12-11T05:02:51.858Z,3.02
2018-12-11T05:03:51.875Z,3.03
2018-12-11T05:04:51.842Z,3.02
2018-12-11T05:05:51.826Z,2.98
2018-12-11T05:06:51.814Z,3.02
2018-12-11T05:07:51.804Z,3.02
2018-12-11T05:08:51.793Z,2.94
2018-12-11T05:09:51.803Z,3.05
2018-12-11T05:10:51.779Z,3.03
2018-12-11T05:11:51.759Z,2.98
2018-12-11T05:12:51.748Z,3.07
2018-12-11T05:13:51.761Z,3.18
2018-12-11T05:14:51.733Z,3.23
2018-12-11T05:15:51.714Z,3.21
2018-12-11T05:16:51.708Z,3.28
2018-12-11T05:17:51.692Z,3.23
2018-12-11T05:18:51.704Z,3.30
2018-12-11T05:19:51.670Z,3.34
2018-12-11T05:20:51.656Z,3.33
2018-12-11T05:21:51.647Z,3.27
2018-12-11T05:22:51.641Z,3.36
2018-12-11T05:23:51.655Z,3.33
2018-12-11T05:24:51.633Z,3.33
2018-12-11T05:25:51.602Z,3.33
2018-12-11T05:26:51.592Z,3.33
2018-12-11T05:27:51.580Z,3.34
2018-12-11T05:28:51.569Z,3.27
2018-12-11T05:29:51.580Z,3.25
2018-12-11T05:30:51.546Z,3.25
2018-12-11T05:31:51.537Z,3.27
2018-12-11T05:32:51.523Z,3.31
2018-12-11T05:33:51.534Z,3.34
2018-12-11T05:34:51.503Z,3.34
2018-12-11T05:35:51.525Z,3.28
2018-12-11T05:36:51.487Z,3.34
2018-12-11T05:37:51.469Z,3.36
2018-12-11T05:38:51.456Z,3.44
2018-12-11T05:39:51.447Z,3.39
2018-12-11T05:40:51.436Z,3.36
2018-12-11T05:41:51.446Z,3.34
2018-12-11T05:42:51.417Z,3.33
2018-12-11T05:43:51.413Z,3.33
2018-12-11T05:44:51.392Z,3.36
2018-12-11T05:45:51.381Z,3.33
2018-12-11T05:46:51.369Z,3.33
2018-12-11T05:47:51.376Z,3.36
2018-12-11T05:48:51.346Z,3.33
2018-12-11T05:49:51.340Z,3.34
2018-12-11T05:50:51.328Z,3.33
2018-12-11T05:51:51.314Z,3.25
2018-12-11T05:52:51.323Z,3.23
2018-12-11T05:53:51.294Z,3.24
2018-12-11T05:54:51.281Z,3.27
2018-12-11T05:55:51.275Z,3.24
2018-12-11T05:56:51.293Z,3.23
2018-12-11T05:57:51.247Z,3.25
2018-12-11T05:58:51.236Z,3.24
2018-12-11T05:59:51.222Z,3.23
2018-12-11T06:00:51.213Z,3.20
2018-12-11T06:01:51.213Z,3.13
2018-12-11T06:02:51.210Z,3.12
2018-12-11T06:03:51.180Z,3.09
2018-12-11T06:04:51.168Z,3.12
2018-12-11T06:05:51.157Z,3.09
2018-12-11T06:06:51.180Z,3.10
2018-12-11T06:07:51.139Z,3.05
2018-12-11T06:08:51.125Z,3.00
2018-12-11T06:09:51.113Z,3.06
2018-12-11T06:10:51.102Z,3.05
2018-12-11T06:11:51.090Z,3.00
2018-12-11T06:12:51.110Z,3.00
2018-12-11T06:13:51.080Z,3.03
2018-12-11T06:14:51.057Z,2.92
2018-12-11T06:15:51.047Z,2.97
2018-12-11T06:16:51.036Z,3.07
2018-12-11T06:17:51.024Z,2.98
2018-12-11T06:18:51.032Z,2.95
2018-12-11T06:19:51.007Z,2.91
2018-12-11T06:20:50.995Z,2.82
2018-12-11T06:21:50.979Z,2.85
2018-12-11T06:22:50.987Z,2.87
2018-12-11T06:23:50.957Z,2.87
2018-12-11T06:24:50.948Z,2.91
2018-12-11T06:25:50.941Z,2.95
2018-12-11T06:26:50.925Z,2.94
2018-12-11T06:27:50.933Z,2.95
2018-12-11T06:28:50.903Z,3.02
2018-12-11T06:29:50.888Z,3.02
2018-12-11T06:30:50.880Z,3.05
2018-12-11T06:31:50.876Z,3.06
2018-12-11T06:32:50.895Z,3.00
2018-12-11T06:33:50.846Z,3.06
2018-12-11T06:34:50.834Z,3.07
2018-12-11T06:35:50.824Z,3.09
2018-12-11T06:36:50.813Z,3.15
2018-12-11T06:37:50.802Z,3.18
2018-12-11T06:38:50.814Z,3.18
2018-12-11T06:39:50.778Z,3.10
2018-12-11T06:40:50.767Z,3.15
2018-12-11T06:41:50.757Z,3.12
2018-12-11T06:42:50.744Z,3.20
2018-12-11T06:43:50.753Z,3.15
2018-12-11T06:44:50.725Z,3.18
2018-12-11T06:45:50.711Z,3.18
2018-12-11T06:46:52.023Z,3.16
2018-12-11T06:47:50.690Z,3.16
2018-12-11T06:48:50.696Z,3.15
2018-12-11T06:49:50.666Z,3.15
2018-12-11T06:50:50.662Z,3.12
2018-12-11T06:51:50.651Z,3.12
2018-12-11T06:52:50.635Z,3.16
2018-12-11T06:53:50.643Z,3.13
2018-12-11T06:54:50.614Z,3.20
2018-12-11T06:55:50.601Z,3.13
2018-12-11T06:56:50.589Z,3.09
2018-12-11T06:57:50.582Z,3.03
2018-12-11T06:58:50.619Z,3.10
2018-12-11T06:59:50.559Z,3.15
2018-12-11T07:00:50.546Z,2.98
2018-12-11T07:01:50.533Z,3.05
2018-12-11T07:02:50.521Z,3.06
2018-12-11T07:03:50.510Z,3.09
2018-12-11T07:04:50.538Z,2.98
2018-12-11T07:05:50.488Z,3.07
2018-12-11T07:06:50.477Z,3.05
2018-12-11T07:07:50.466Z,3.07
2018-12-11T07:08:50.455Z,2.98
2018-12-11T07:09:50.443Z,2.91
2018-12-11T07:10:50.453Z,2.89
2018-12-11T07:11:50.423Z,2.87
2018-12-11T07:12:50.429Z,2.87
2018-12-11T07:13:50.422Z,2.88
2018-12-11T07:14:50.399Z,2.77
2018-12-11T07:15:50.413Z,2.74
2018-12-11T07:16:50.387Z,2.81
2018-12-11T07:17:50.400Z,2.82
2018-12-11T07:18:50.363Z,2.81
2018-12-11T07:19:50.367Z,2.79
2018-12-11T07:20:50.323Z,2.73
2018-12-11T07:21:50.314Z,2.74
2018-12-11T07:22:50.311Z,2.71
2018-12-11T07:23:50.289Z,2.77
2018-12-11T07:24:50.337Z,2.69
2018-12-11T07:25:50.266Z,2.74
2018-12-11T07:26:50.260Z,2.71
2018-12-11T07:27:50.249Z,2.73
2018-12-11T07:28:50.267Z,2.70
2018-12-11T07:29:50.257Z,2.74
2018-12-11T07:30:50.226Z,2.67
2018-12-11T07:31:50.234Z,2.56
2018-12-11T07:32:50.204Z,2.61
2018-12-11T07:33:50.953Z,2.59
2018-12-11T07:34:50.179Z,2.64
2018-12-11T07:35:50.155Z,2.64
2018-12-11T07:36:50.162Z,2.53
2018-12-11T07:37:50.130Z,2.63
2018-12-11T07:38:50.148Z,2.59
2018-12-11T07:39:50.111Z,2.56
2018-12-11T07:40:50.102Z,2.53
2018-12-11T07:41:50.106Z,2.55
2018-12-11T07:42:50.096Z,2.52
2018-12-11T07:43:50.088Z,2.58
2018-12-11T07:44:50.056Z,2.51
2018-12-11T07:45:50.044Z,2.49
2018-12-11T07:46:50.052Z,2.49
2018-12-11T07:47:50.039Z,2.58
2018-12-11T07:48:50.011Z,2.61
2018-12-11T07:49:50.008Z,2.56
2018-12-11T07:50:50.007Z,2.66
2018-12-11T07:51:49.987Z,2.59
2018-12-11T07:52:49.991Z,2.61
2018-12-11T07:53:49.967Z,2.64
2018-12-11T07:54:49.954Z,2.66
2018-12-11T07:55:49.933Z,2.67
2018-12-11T07:56:49.923Z,2.66
2018-12-11T07:57:49.972Z,2.71
2018-12-11T07:58:49.898Z,2.61
2018-12-11T07:59:49.895Z,2.61
2018-12-11T08:00:49.898Z,2.66
2018-12-11T08:01:49.865Z,2.69
2018-12-11T08:02:49.855Z,2.61
2018-12-11T08:03:49.862Z,2.53
2018-12-11T08:04:49.831Z,2.66
2018-12-11T08:05:49.843Z,2.67
2018-12-11T08:06:49.816Z,2.70
2018-12-11T08:07:49.799Z,2.70
2018-12-11T08:08:49.811Z,2.61
2018-12-11T08:09:49.800Z,2.64
2018-12-11T08:10:49.765Z,2.67
2018-12-11T08:11:49.780Z,2.70
2018-12-11T08:12:49.749Z,2.69
2018-12-11T08:13:49.760Z,2.74
2018-12-11T08:14:49.719Z,2.70
2018-12-11T08:15:49.713Z,2.70
2018-12-11T08:16:49.698Z,2.70
2018-12-11T08:17:49.687Z,2.77
2018-12-11T08:18:49.700Z,2.74
2018-12-11T08:19:49.667Z,2.79
2018-12-11T08:20:49.650Z,2.74
2018-12-11T08:21:49.644Z,2.81
2018-12-11T08:22:49.630Z,2.81
2018-12-11T08:23:49.645Z,2.82
2018-12-11T08:24:49.609Z,2.81
2018-12-11T08:25:49.598Z,2.85
2018-12-11T08:26:49.606Z,2.84
2018-12-11T08:27:49.576Z,2.85
2018-12-11T08:28:49.566Z,2.91
2018-12-11T08:29:49.559Z,2.92
2018-12-11T08:30:49.542Z,2.82
2018-12-11T08:31:49.551Z,2.85
2018-12-11T08:32:49.518Z,2.85
2018-12-11T08:33:49.509Z,2.85
2018-12-11T08:34:49.497Z,2.89
2018-12-11T08:35:49.513Z,2.84
2018-12-11T08:36:49.478Z,2.88
2018-12-11T08:37:49.511Z,2.84
2018-12-11T08:38:49.453Z,2.84
2018-12-11T08:39:49.443Z,2.82
2018-12-11T08:40:49.434Z,2.82
2018-12-11T08:41:49.428Z,2.85
2018-12-11T08:42:49.409Z,2.88
2018-12-11T08:43:49.429Z,2.91
2018-12-11T08:44:51.372Z,2.88
2018-12-11T08:45:49.375Z,2.85
2018-12-11T08:46:49.365Z,2.88
2018-12-11T08:47:49.357Z,2.85
2018-12-11T08:48:49.356Z,2.91
2018-12-11T08:49:49.351Z,2.98
2018-12-11T08:50:49.319Z,2.94
2018-12-11T08:51:49.317Z,2.98
2018-12-11T08:52:49.317Z,3.05
2018-12-11T08:53:49.286Z,3.06
2018-12-11T08:54:49.301Z,3.07
2018-12-11T08:55:49.265Z,3.10
2018-12-11T08:56:49.259Z,3.07
2018-12-11T08:57:49.243Z,2.95
2018-12-11T08:58:49.230Z,3.09
2018-12-11T08:59:49.260Z,3.10
2018-12-11T09:00:49.214Z,3.16
2018-12-11T09:01:49.199Z,3.20
2018-12-11T09:02:49.188Z,3.33
2018-12-11T09:03:49.174Z,3.28
2018-12-11T09:04:49.166Z,3.31
2018-12-11T09:05:49.173Z,3.25
2018-12-11T09:06:49.183Z,3.28
2018-12-11T09:07:49.131Z,3.36
2018-12-11T09:08:49.120Z,3.39
2018-12-11T09:09:49.108Z,3.33
2018-12-11T09:10:49.098Z,3.36
2018-12-11T09:11:49.090Z,3.28
2018-12-11T09:12:49.159Z,3.36
2018-12-11T09:13:49.072Z,3.47
2018-12-11T09:14:49.062Z,3.33
2018-12-11T09:15:49.042Z,3.46
2018-12-11T09:16:49.049Z,3.46
2018-12-11T09:17:49.019Z,3.40
2018-12-11T09:18:49.012Z,3.50
2018-12-11T09:19:48.998Z,3.43
2018-12-11T09:20:48.997Z,3.43
2018-12-11T09:21:48.993Z,3.49
2018-12-11T09:22:48.968Z,3.49
2018-12-11T09:23:48.952Z,3.43
2018-12-11T09:24:48.944Z,3.49
2018-12-11T09:25:48.929Z,3.54
2018-12-11T09:28:19.476Z,3.54
2018-12-11T09:29:03.089Z,3.52
2018-12-11T09:30:03.080Z,3.54
2018-12-11T09:31:03.068Z,3.53
2018-12-11T09:32:03.053Z,3.53
2018-12-11T09:33:03.049Z,3.53
2018-12-11T09:34:03.051Z,3.61
2018-12-11T09:35:03.021Z,3.58
2018-12-11T09:36:03.011Z,3.62
2018-12-11T09:37:03.007Z,3.58
2018-12-11T09:38:02.988Z,3.57
2018-12-11T09:39:03.021Z,3.62
2018-12-11T09:40:02.965Z,3.62
2018-12-11T09:41:02.969Z,3.68
2018-12-11T09:42:07.176Z,3.64
2018-12-11T09:43:02.935Z,3.65
2018-12-11T09:44:02.920Z,3.79
2018-12-11T09:45:02.940Z,3.83
2018-12-11T09:46:02.904Z,3.72
2018-12-11T09:47:02.889Z,3.72
2018-12-11T09:48:02.884Z,3.79
2018-12-11T09:49:02.876Z,3.80
2018-12-11T09:50:02.860Z,3.82
2018-12-11T09:51:02.856Z,3.86
2018-12-11T09:52:02.833Z,3.88
2018-12-11T09:53:02.822Z,3.86
2018-12-11T09:54:02.810Z,3.89
2018-12-11T09:55:02.799Z,3.89
2018-12-11T09:56:02.817Z,3.83
2018-12-11T09:57:02.775Z,3.98
2018-12-11T09:58:02.765Z,3.80
2018-12-11T09:59:02.755Z,3.98
2018-12-11T10:00:02.758Z,3.97
2018-12-11T10:01:02.732Z,3.97
2018-12-11T10:02:02.744Z,3.90
2018-12-11T10:03:02.714Z,3.98
2018-12-11T10:04:02.703Z,3.94
2018-12-11T10:05:02.687Z,3.96
2018-12-11T10:06:02.678Z,4.18
2018-12-11T10:07:02.662Z,4.08
2018-12-11T10:08:02.677Z,4.21
2018-12-11T10:09:02.643Z,4.24
2018-12-11T10:10:02.638Z,4.19
2018-12-11T10:11:02.620Z,4.19
2018-12-11T10:12:02.609Z,4.25
2018-12-11T10:13:02.596Z,4.26
2018-12-11T10:14:02.618Z,4.22
2018-12-11T10:15:02.577Z,4.26
2018-12-11T10:16:02.579Z,4.14
2018-12-11T10:17:02.554Z,4.16
2018-12-11T10:18:02.544Z,4.22
2018-12-11T10:19:02.538Z,4.22
2018-12-11T10:20:02.553Z,4.21
2018-12-11T10:21:02.509Z,4.21
2018-12-11T10:22:02.502Z,4.24
2018-12-11T10:23:02.487Z,4.29
2018-12-11T10:24:02.484Z,4.28
2018-12-11T10:25:02.465Z,4.33
2018-12-11T10:26:02.471Z,4.29
2018-12-11T10:27:02.444Z,4.33
2018-12-11T10:28:02.442Z,4.37
2018-12-11T10:29:02.421Z,4.43
2018-12-11T10:30:02.414Z,4.37
2018-12-11T10:31:02.412Z,4.40
2018-12-11T10:32:02.399Z,4.40
2018-12-11T10:33:02.376Z,4.36
2018-12-11T10:34:02.370Z,4.37
2018-12-11T10:35:02.357Z,4.43
2018-12-11T10:36:02.347Z,4.46
2018-12-11T10:37:02.388Z,4.46
2018-12-11T10:38:02.324Z,4.37
2018-12-11T10:39:02.310Z,4.42
2018-12-11T10:40:02.311Z,4.46
2018-12-11T10:41:02.297Z,4.54
2018-12-11T10:42:02.293Z,4.44
2018-12-11T10:43:02.296Z,4.36
2018-12-11T10:44:02.256Z,4.46
2018-12-11T10:45:02.245Z,4.34
2018-12-11T10:46:02.232Z,4.44
2018-12-11T10:47:02.240Z,4.42
2018-12-11T10:48:02.212Z,4.33
2018-12-11T10:49:02.234Z,4.36
2018-12-11T10:50:02.187Z,4.40
2018-12-11T10:51:02.179Z,4.50
2018-12-11T10:52:02.164Z,4.50
2018-12-11T10:53:02.167Z,4.50
2018-12-11T10:54:02.178Z,4.51
2018-12-11T10:55:02.153Z,4.51
2018-12-11T10:56:02.145Z,4.52
2018-12-11T10:57:02.116Z,4.55
2018-12-11T10:58:02.118Z,4.57
2018-12-11T10:59:02.115Z,4.62
2018-12-11T11:00:02.094Z,4.54
2018-12-11T11:01:02.097Z,4.57
2018-12-11T11:02:02.094Z,4.64
2018-12-11T11:03:02.057Z,4.65
2018-12-11T11:04:02.043Z,4.58
2018-12-11T11:05:02.052Z,4.59
2018-12-11T11:06:02.054Z,4.67
2018-12-11T11:07:02.038Z,4.65
2018-12-11T11:08:01.993Z,4.57
2018-12-11T11:09:01.981Z,4.57
2018-12-11T11:10:02.039Z,4.55
2018-12-11T11:11:01.958Z,4.61
2018-12-11T11:12:02.034Z,4.52
2018-12-11T11:13:01.968Z,4.57
2018-12-11T11:14:01.949Z,4.65
2018-12-11T11:15:01.953Z,4.59
2018-12-11T11:16:01.909Z,4.57
2018-12-11T11:17:01.931Z,4.55
2018-12-11T11:18:01.903Z,4.59
2018-12-11T11:19:01.912Z,4.62
2018-12-11T11:20:01.868Z,4.64
2018-12-11T11:21:01.856Z,4.64
2018-12-11T11:22:01.838Z,4.67
2018-12-11T11:23:01.863Z,4.65
2018-12-11T11:24:01.856Z,4.54
2018-12-11T11:25:01.808Z,4.54
2018-12-11T11:26:01.795Z,4.59
2018-12-11T11:27:01.792Z,4.55
2018-12-11T11:28:01.775Z,4.64
2018-12-11T11:29:01.776Z,4.62
2018-12-11T11:30:01.798Z,4.57
2018-12-11T11:31:01.736Z,4.62
2018-12-11T11:32:01.725Z,4.75
2018-12-11T11:33:01.731Z,4.80
2018-12-11T11:34:01.701Z,4.73
2018-12-11T11:35:01.691Z,4.75
2018-12-11T11:36:01.691Z,4.80
2018-12-11T11:37:01.671Z,4.80
2018-12-11T11:38:01.684Z,4.89
2018-12-11T11:39:01.676Z,4.95
2018-12-11T11:40:01.636Z,4.96
2018-12-11T11:41:01.744Z,4.95
2018-12-11T11:42:01.615Z,5.07
2018-12-11T11:43:01.605Z,5.13
2018-12-11T11:44:01.591Z,5.13
2018-12-11T11:45:01.613Z,5.35
2018-12-11T11:46:01.569Z,5.30
2018-12-11T11:47:01.570Z,5.30
2018-12-11T11:48:01.561Z,5.32
2018-12-11T11:49:01.533Z,5.43
2018-12-11T11:50:01.526Z,5.40
2018-12-11T11:51:01.525Z,5.41
2018-12-11T11:52:01.509Z,5.31
2018-12-11T11:53:01.505Z,5.34
2018-12-11T11:54:01.477Z,5.35
2018-12-11T11:55:01.465Z,5.31
2018-12-11T11:56:01.455Z,5.35
2018-12-11T11:57:01.445Z,5.30
2018-12-11T11:58:01.481Z,5.35
2018-12-11T11:59:01.422Z,5.32
2018-12-11T12:00:01.410Z,5.34
2018-12-11T12:01:01.401Z,5.32
2018-12-11T12:02:01.387Z,5.28
2018-12-11T12:03:01.376Z,5.28
2018-12-11T12:04:01.415Z,5.32
2018-12-11T12:05:01.362Z,5.31
2018-12-11T12:06:01.350Z,5.25
2018-12-11T12:07:01.376Z,5.22
2018-12-11T12:08:01.325Z,5.27
2018-12-11T12:09:01.312Z,5.32
2018-12-11T12:10:01.317Z,5.30
2018-12-11T12:11:01.293Z,5.23
2018-12-11T12:12:01.306Z,5.22
2018-12-11T12:13:01.286Z,5.25
2018-12-11T12:14:01.272Z,5.20
2018-12-11T12:15:01.284Z,5.25
2018-12-11T12:16:01.252Z,5.25
2018-12-11T12:17:01.251Z,5.25
2018-12-11T12:18:01.225Z,5.31
2018-12-11T12:19:01.202Z,5.13
2018-12-11T12:20:01.190Z,5.25
2018-12-11T12:21:01.187Z,5.14
2018-12-11T12:22:01.169Z,5.12
2018-12-11T12:23:01.201Z,5.14
2018-12-11T12:24:01.143Z,5.10
2018-12-11T12:25:01.132Z,5.23
2018-12-11T12:26:01.125Z,5.12
2018-12-11T12:27:01.106Z,5.09
2018-12-11T12:28:01.100Z,5.19
2018-12-11T12:29:01.101Z,5.17
2018-12-11T12:30:01.077Z,5.19
2018-12-11T12:31:01.085Z,5.13
2018-12-11T12:32:01.059Z,5.12
2018-12-11T12:33:01.050Z,5.14
2018-12-11T12:34:01.056Z,5.13
2018-12-11T12:35:01.018Z,5.10
2018-12-11T12:36:01.013Z,5.12
2018-12-11T12:37:00.999Z,5.10
2018-12-11T12:38:01.008Z,5.07
2018-12-11T12:39:00.992Z,5.10
2018-12-11T12:40:00.979Z,5.09
2018-12-11T12:41:00.953Z,5.09
2018-12-11T12:42:00.942Z,5.07
2018-12-11T12:43:00.948Z,5.13
2018-12-11T12:44:00.919Z,5.13
2018-12-11T12:45:00.956Z,5.09
2018-12-11T12:46:00.901Z,5.13
2018-12-11T12:47:00.883Z,5.10
2018-12-11T12:48:00.875Z,5.12
2018-12-11T12:49:00.879Z,5.10
2018-12-11T12:50:00.852Z,5.12
2018-12-11T12:51:00.840Z,5.07
2018-12-11T12:52:00.864Z,5.17
2018-12-11T12:53:00.819Z,5.13
2018-12-11T12:54:00.836Z,5.10
2018-12-11T12:55:00.809Z,5.10
2018-12-11T12:56:00.783Z,5.16
2018-12-11T12:57:00.778Z,5.10
2018-12-11T12:58:00.790Z,5.10
2018-12-11T12:59:00.757Z,5.13
2018-12-11T13:00:00.778Z,5.12
2018-12-11T13:01:00.732Z,5.07
2018-12-11T13:02:00.722Z,5.10
2018-12-11T13:03:00.707Z,5.13
2018-12-11T13:04:00.757Z,5.10
2018-12-11T13:05:00.685Z,5.09
2018-12-11T13:06:00.680Z,5.13
2018-12-11T13:07:00.657Z,5.04
2018-12-11T13:08:00.670Z,5.09
2018-12-11T13:09:00.668Z,5.04
2018-12-11T13:10:00.666Z,5.07
2018-12-11T13:11:00.617Z,5.07
2018-12-11T13:12:00.603Z,5.05
2018-12-11T13:13:00.609Z,5.07
2018-12-11T13:14:00.587Z,5.04
2018-12-11T13:15:06.912Z,5.04
2018-12-11T13:16:01.604Z,5.04
2018-12-11T13:17:00.595Z,5.12
2018-12-11T13:18:00.586Z,5.12
2018-12-11T13:19:00.536Z,5.04
2018-12-11T13:20:00.562Z,5.09
2018-12-11T13:21:00.533Z,5.09
2018-12-11T13:22:00.546Z,5.05
2018-12-11T13:23:00.502Z,5.04
2018-12-11T13:24:00.472Z,5.09
2018-12-11T13:25:00.456Z,5.10
2018-12-11T13:26:00.451Z,5.07
2018-12-11T13:27:00.441Z,5.16
2018-12-11T13:28:00.458Z,5.12
2018-12-11T13:29:00.423Z,5.12
2018-12-11T13:30:00.414Z,5.04
2018-12-11T13:31:00.393Z,5.09
2018-12-11T13:32:00.380Z,5.09
2018-12-11T13:33:00.433Z,5.10
2018-12-11T13:34:00.376Z,5.02
2018-12-11T13:35:00.381Z,5.05
2018-12-11T13:36:00.344Z,5.07
2018-12-11T13:37:00.327Z,5.01
2018-12-11T13:38:00.337Z,5.04
2018-12-11T13:39:00.335Z,5.02
2018-12-11T13:40:00.288Z,4.99
2018-12-11T13:41:00.275Z,4.99
2018-12-11T13:42:00.265Z,5.14
2018-12-11T13:43:00.260Z,4.98
2018-12-11T13:44:00.279Z,5.02
2018-12-11T13:45:00.229Z,5.07
2018-12-11T13:46:00.231Z,5.04
2018-12-11T13:47:00.225Z,5.04
2018-12-11T13:48:00.220Z,5.09
2018-12-11T13:49:00.224Z,4.95
2018-12-11T13:50:00.189Z,4.99
2018-12-11T13:51:00.203Z,5.07
2018-12-11T13:52:00.161Z,4.98
2018-12-11T13:53:00.142Z,5.02
2018-12-11T13:54:00.151Z,5.04
2018-12-11T13:55:00.143Z,4.94
2018-12-11T13:56:00.113Z,4.88
2018-12-11T13:57:00.092Z,4.96
2018-12-11T13:58:00.110Z,4.95
2018-12-11T13:59:00.080Z,4.98
2018-12-11T14:00:00.080Z,4.91
2018-12-11T14:01:00.048Z,4.91
2018-12-11T14:02:00.042Z,4.94
2018-12-11T14:03:00.077Z,5.01
2018-12-11T14:04:00.014Z,4.95